ADDS TAF Board (Experimental) INFO Settings
IDs: Format: Expanded Condensed

KDTW - Detroit Metro/Wayne, MI, US

Issued at 1720 UTC 05 May 2016
Updated at: 1808 UTC 05 May 2016
Time1753Z 05/19Z 05/20Z 05/21Z 05/22Z 05/23Z 06/00Z 06/01Z 06/02Z 06/03Z 06/04Z 06/05Z 06/06Z 06/07Z
Type OBS PRVL PRVL PRVL PRVL PRVL PRVL PRVL PRVL PRVL PRVL PRVL PRVL PRVL
VIS 10 >6 >6 >6 >6 >6 >6 >6 >6 >6 >6 >6 >6 >6
CIG -- 50 60 60 -- -- -- -- -- -- -- -- -- --
Cover SCT BKN BKN BKN SCT SCT SCT SKC SKC SKC SKC SKC SKC SKC
FltCat VFR VFR VFR VFR VFR VFR VFR VFR VFR VFR VFR VFR VFR VFR
WX -- -- -- -- -- -- -- -- -- -- -- -- -- --
WDir 360 20 360 360 360 360 360 350 350 350 350 350 350 350
WSpd 15 13 13 13 10 10 10 5 5 5 5 5 5 5
WGst 21 21 20 20 18 18 18 -- -- -- -- -- -- --
R03/21
XWnd 7 2 6 6 5 5 5 3 3 3 3 3 3 3
XGst 10 3 10 10 9 9 9 -- -- -- -- -- -- --
HWnd 13 13 11 11 9 9 9 4 4 4 4 4 4 4
HGst 18 21 17 17 16 16 16 -- -- -- -- -- -- --
R04/22
XWnd 7 2 6 6 5 5 5 3 3 3 3 3 3 3
XGst 10 3 10 10 9 9 9 -- -- -- -- -- -- --
HWnd 13 13 11 11 9 9 9 4 4 4 4 4 4 4
HGst 18 21 17 17 16 16 16 -- -- -- -- -- -- --
R09/27
XWnd 15 12 13 13 10 10 10 5 5 5 5 5 5 5
XGst 21 20 20 20 18 18 18 -- -- -- -- -- -- --
HWnd 0 5 0 0 0 0 0 -1 -1 -1 -1 -1 -1 -1
HGst 0 8 0 0 0 0 0 -- -- -- -- -- -- --

NOTE: TEMPO conditions in [brackets]. Keep in mind TEMPO conditions might be better (lower impact) than prevailing conditions.

Raw TAF
KDTW 051720Z 0518/0624 02013G21KT P6SM BKN050
  FM052000 36013G20KT P6SM BKN060
  FM052200 36010G18KT P6SM SCT060
  FM060100 35005KT P6SM SKC
  FM061500 33006KT P6SM FEW060


Raw METAR
KDTW 051753Z 36015G21KT 10SM SCT055 SCT250 18/04 A2985 RMK AO2 SLP107 T01830039 10183 20089 58004
KDTW 051653Z 03013G19KT 10SM FEW045 SCT250 18/05 A2986 RMK AO2 SLP111 T01780050
KDTW 051553Z 01011G20KT 10SM FEW040 SCT250 17/06 A2986 RMK AO2 SLP112 T01670056

METAR Board
Radar Display
Forecast Discussion

TAF Board Legend

Potential Impact
Threat None Slight Moderate High
Visibility (sm) ≥5.1 5.1>X≥3 3>X≥1 <1
Ceiling (100 ft) ≥30.1 30.1>X≥10 10>X≥5 <5
Wind Speed (kt) <10 10≤X<20 20≤X<30 ≥30
Wind Gust (kt) <15 15≤X<25 25≤X<35 ≥35
Weather No Wx Reported VCTS,-TS,-FZRA,SN TS,FZRA +TS,+FZRA,+SN